Sawpit, Colorado
Current Conditions -  °F | °C
As of 1:15 PM on Sunday 21 Dec 2014 (Local Time) from KTEX Reporting Station
Light Snow Light Snow  
Wind Chill: 22°   Ceiling: 600
Heat Index: 31°   Visibility: 0.75mi
Dew Point: 29°   Wind: 10mph
Humidity: 93%   Direction: 260°W
Pressure: 30.01"   Gusts: 16mph
Location:  37.9189°N, 107.878°W
Report Text: KTEX 212015Z AUTO 26009G14KT 3/4SM -SN OVC006 M01/M02 A3001 RMK AO2 T10071017
Loading
Personal Weather Stations






























Interactive Weather Map New forecast layout! Learn more

10-Day Weather Forecast

Advertisements
Track Severe Weather on mobile